createdAt,value
2023-04-02T00:00:12.644Z,93
2023-04-02T00:00:34.550Z,93
2023-04-02T00:00:56.883Z,93
2023-04-02T00:01:32.461Z,93
2023-04-02T00:02:05.940Z,93
2023-04-02T00:02:36.236Z,93
2023-04-02T00:03:08.667Z,93
2023-04-02T00:03:39.894Z,93
2023-04-02T00:04:13.609Z,92
2023-04-02T00:04:36.170Z,93
2023-04-02T00:04:59.695Z,92
2023-04-02T00:05:32.193Z,93
2023-04-02T00:06:03.928Z,93
2023-04-02T00:06:37.013Z,92
2023-04-02T00:07:09.740Z,92
2023-04-02T00:07:39.808Z,92
2023-04-02T00:08:12.069Z,92
2023-04-02T00:08:34.998Z,92
2023-04-02T00:08:57.311Z,93
2023-04-02T00:09:32.726Z,93
2023-04-02T00:10:05.042Z,93
2023-04-02T00:10:36.062Z,93
2023-04-02T00:11:08.325Z,93
2023-04-02T00:11:39.917Z,93
2023-04-02T00:12:12.409Z,93
2023-04-02T00:12:35.355Z,93
2023-04-02T00:12:57.378Z,93
2023-04-02T00:13:32.449Z,93
2023-04-02T00:14:03.890Z,93
2023-04-02T00:14:36.893Z,93
2023-04-02T00:15:09.715Z,93
2023-04-02T00:15:39.936Z,93
2023-04-02T00:16:12.339Z,93
2023-04-02T00:16:35.259Z,93
2023-04-02T00:16:58.121Z,93
2023-04-02T00:17:32.269Z,93
2023-04-02T00:18:05.269Z,93
2023-04-02T00:18:36.290Z,93
2023-04-02T00:19:08.581Z,93
2023-04-02T00:19:40.644Z,93
2023-04-02T00:20:12.817Z,93
2023-04-02T00:20:35.598Z,93
2023-04-02T00:20:58.107Z,93
2023-04-02T00:21:32.774Z,93
2023-04-02T00:22:04.137Z,93
2023-04-02T00:22:36.844Z,93
2023-04-02T00:23:08.401Z,93
2023-04-02T00:23:40.454Z,93
2023-04-02T00:24:12.231Z,93
2023-04-02T00:24:34.938Z,93
2023-04-02T00:24:57.349Z,93
2023-04-02T00:25:37.926Z,93
2023-04-02T00:26:04.099Z,93
2023-04-02T00:26:36.424Z,93
2023-04-02T00:27:08.470Z,93
2023-04-02T00:27:40.343Z,93
2023-04-02T00:28:12.855Z,93
2023-04-02T00:28:35.552Z,93
2023-04-02T00:28:57.945Z,93
2023-04-02T00:29:31.930Z,93
2023-04-02T00:30:03.949Z,93
2023-04-02T00:30:35.876Z,93
2023-04-02T00:31:07.947Z,93
2023-04-02T00:31:39.937Z,93
2023-04-02T00:32:12.162Z,93
2023-04-02T00:32:34.936Z,94
2023-04-02T00:32:57.546Z,94
2023-04-02T00:33:32.212Z,94
2023-04-02T00:34:04.252Z,94
2023-04-02T00:34:36.356Z,94
2023-04-02T00:35:08.470Z,94
2023-04-02T00:35:39.883Z,94
2023-04-02T00:36:13.098Z,94
2023-04-02T00:36:35.784Z,94
2023-04-02T00:36:58.139Z,94
2023-04-02T00:37:32.640Z,94
2023-04-02T00:38:04.118Z,94
2023-04-02T00:38:36.100Z,94
2023-04-02T00:39:07.940Z,94
2023-04-02T00:39:40.556Z,94
2023-04-02T00:40:15.626Z,94
2023-04-02T00:40:35.014Z,94
2023-04-02T00:40:57.429Z,94
2023-04-02T00:41:32.740Z,94
2023-04-02T00:42:06.097Z,94
2023-04-02T00:42:36.173Z,94
2023-04-02T00:43:08.316Z,94
2023-04-02T00:43:40.019Z,94
2023-04-02T00:44:12.999Z,94
2023-04-02T00:44:35.479Z,94
2023-04-02T00:44:58.189Z,94
2023-04-02T00:45:33.196Z,94
2023-04-02T00:46:04.204Z,94
2023-04-02T00:46:36.310Z,94
2023-04-02T00:47:07.880Z,94
2023-04-02T00:47:40.974Z,94
2023-04-02T00:48:13.532Z,94
2023-04-02T00:48:34.862Z,94
2023-04-02T00:48:57.452Z,94
2023-04-02T00:49:32.260Z,94
2023-04-02T00:50:04.509Z,94
2023-04-02T00:50:35.863Z,94
2023-04-02T00:51:09.431Z,94
2023-04-02T00:51:40.297Z,94
2023-04-02T00:52:12.007Z,94
2023-04-02T00:52:34.833Z,94
2023-04-02T00:52:57.257Z,94
2023-04-02T00:53:32.704Z,94
2023-04-02T00:54:04.991Z,94
2023-04-02T00:54:35.893Z,94
2023-04-02T00:55:08.508Z,94
2023-04-02T00:55:40.183Z,94
2023-04-02T00:56:11.898Z,94
2023-04-02T00:56:34.683Z,94
2023-04-02T00:56:56.995Z,94
2023-04-02T00:57:32.127Z,94
2023-04-02T00:58:04.102Z,94
2023-04-02T00:58:35.840Z,94
2023-04-02T00:59:08.708Z,94
2023-04-02T00:59:40.089Z,94
2023-04-02T01:00:12.052Z,94
2023-04-02T01:00:34.961Z,94
2023-04-02T01:00:57.122Z,94
2023-04-02T01:01:33.081Z,95
2023-04-02T01:02:10.513Z,95
2023-04-02T01:02:36.777Z,95
2023-04-02T01:03:07.977Z,95
2023-04-02T01:03:40.565Z,95
2023-04-02T01:04:13.352Z,95
2023-04-02T01:04:35.793Z,95
2023-04-02T01:06:21.244Z,95
2023-04-02T01:06:43.436Z,95
2023-04-02T01:07:06.082Z,95
2023-04-02T01:07:42.124Z,95
2023-04-02T01:08:12.042Z,95
2023-04-02T01:08:34.727Z,95
2023-04-02T01:08:57.202Z,95
2023-04-02T01:09:32.164Z,95
2023-04-02T01:10:06.300Z,95
2023-04-02T01:10:36.021Z,95
2023-04-02T01:11:08.243Z,95
2023-04-02T01:11:40.441Z,95
2023-04-02T01:12:12.095Z,95
2023-04-02T01:12:34.759Z,95
2023-04-02T01:12:57.271Z,95
2023-04-02T01:13:32.010Z,95
2023-04-02T01:14:04.105Z,95
2023-04-02T01:14:36.597Z,95
2023-04-02T01:15:10.058Z,95
2023-04-02T01:15:40.099Z,95
2023-04-02T01:16:11.963Z,95
2023-04-02T01:16:34.774Z,95
2023-04-02T01:16:57.231Z,95
2023-04-02T01:17:32.022Z,95
2023-04-02T01:18:05.583Z,95
2023-04-02T01:18:35.966Z,95
2023-04-02T01:19:07.925Z,95
2023-04-02T01:19:40.107Z,95
2023-04-02T01:20:11.893Z,95
2023-04-02T01:20:34.691Z,95
2023-04-02T01:20:57.447Z,95
2023-04-02T01:21:32.020Z,95
2023-04-02T01:22:03.818Z,95
2023-04-02T01:22:35.875Z,95
2023-04-02T01:23:08.450Z,95
2023-04-02T01:23:41.409Z,95
2023-04-02T01:24:12.280Z,95
2023-04-02T01:24:34.763Z,95
2023-04-02T01:24:57.808Z,95
2023-04-02T01:25:33.565Z,95
2023-04-02T01:26:04.860Z,95
2023-04-02T01:26:35.938Z,95
2023-04-02T01:27:08.038Z,95
2023-04-02T01:27:42.632Z,95
2023-04-02T01:28:12.562Z,95
2023-04-02T01:28:35.269Z,95
2023-04-02T01:28:57.733Z,95
2023-04-02T01:29:31.974Z,95
2023-04-02T01:30:04.111Z,95
2023-04-02T01:30:36.009Z,95
2023-04-02T01:31:07.909Z,95
2023-04-02T01:31:40.397Z,95
2023-04-02T01:32:11.952Z,95
2023-04-02T01:32:35.067Z,95
2023-04-02T01:32:58.284Z,95
2023-04-02T01:33:32.632Z,95
2023-04-02T01:34:03.995Z,95
2023-04-02T01:34:35.894Z,95
2023-04-02T01:35:08.131Z,95
2023-04-02T01:35:39.909Z,95
2023-04-02T01:36:12.099Z,95
2023-04-02T01:36:34.764Z,95
2023-04-02T01:36:57.975Z,95
2023-04-02T01:37:32.038Z,95
2023-04-02T01:38:04.019Z,95
2023-04-02T01:38:36.051Z,95
2023-04-02T01:39:09.038Z,95
2023-04-02T01:39:40.326Z,95
2023-04-02T01:40:12.017Z,95
2023-04-02T01:40:34.738Z,95
2023-04-02T01:40:58.348Z,95
2023-04-02T01:41:31.921Z,95
2023-04-02T01:42:04.844Z,95
2023-04-02T01:42:35.912Z,95
2023-04-02T01:43:08.058Z,95
2023-04-02T01:43:39.848Z,95
2023-04-02T01:44:12.149Z,95
2023-04-02T01:44:34.860Z,95
2023-04-02T01:44:59.024Z,95
2023-04-02T01:45:33.620Z,95
2023-04-02T01:46:04.387Z,95
2023-04-02T01:46:36.302Z,95
2023-04-02T01:47:07.878Z,95
2023-04-02T01:47:39.989Z,95
2023-04-02T01:48:13.374Z,95
2023-04-02T01:48:34.861Z,95
2023-04-02T01:49:00.732Z,95
2023-04-02T01:49:33.024Z,95
2023-04-02T01:50:05.029Z,95
2023-04-02T01:50:35.963Z,95
2023-04-02T01:51:08.845Z,95
2023-04-02T01:51:40.507Z,95
2023-04-02T01:52:12.506Z,95
2023-04-02T01:52:35.296Z,95
2023-04-02T01:53:00.481Z,95
2023-04-02T01:53:32.770Z,95
2023-04-02T01:54:05.607Z,95
2023-04-02T01:54:36.270Z,95
2023-04-02T01:55:08.222Z,94
2023-04-02T01:55:40.426Z,94
2023-04-02T01:56:13.364Z,95
2023-04-02T01:56:36.144Z,95
2023-04-02T01:57:00.737Z,94
2023-04-02T01:57:31.950Z,94
2023-04-02T01:58:04.006Z,94
2023-04-02T01:58:35.990Z,94
2023-04-02T01:59:08.729Z,94
2023-04-02T01:59:39.982Z,94
2023-04-02T02:00:12.481Z,94
2023-04-02T02:00:34.890Z,94
2023-04-02T02:00:57.106Z,94
2023-04-02T02:01:34.202Z,94
2023-04-02T02:02:38.335Z,94
2023-04-02T02:03:13.875Z,94
2023-04-02T02:03:45.506Z,94
2023-04-02T02:04:39.493Z,94
2023-04-02T02:05:26.302Z,94
2023-04-02T02:05:49.725Z,94
2023-04-02T02:06:20.785Z,94
2023-04-02T02:06:52.264Z,94
2023-04-02T02:07:44.416Z,94
2023-04-02T02:08:07.675Z,94
2023-04-02T02:08:37.722Z,94
2023-04-02T02:08:59.951Z,94
2023-04-02T02:09:31.786Z,94
2023-04-02T02:10:03.890Z,94
2023-04-02T02:10:36.002Z,94
2023-04-02T02:11:07.813Z,94
2023-04-02T02:11:39.687Z,94
2023-04-02T02:12:11.962Z,94
2023-04-02T02:12:34.841Z,94
2023-04-02T02:12:57.254Z,94
2023-04-02T02:13:31.701Z,94
2023-04-02T02:14:03.910Z,94
2023-04-02T02:14:35.758Z,94
2023-04-02T02:15:13.470Z,94
2023-04-02T02:15:39.760Z,94
2023-04-02T02:16:11.915Z,95
2023-04-02T02:16:34.807Z,94
2023-04-02T02:16:56.907Z,95
2023-04-02T02:17:32.002Z,95
2023-04-02T02:18:05.090Z,95
2023-04-02T02:18:35.731Z,95
2023-04-02T02:19:07.825Z,95
2023-04-02T02:19:39.943Z,95
2023-04-02T02:20:11.676Z,95
2023-04-02T02:20:34.792Z,95
2023-04-02T02:20:57.103Z,95
2023-04-02T02:21:31.880Z,95
2023-04-02T02:22:00.046Z,95
2023-04-02T02:22:36.672Z,95
2023-04-02T02:23:08.637Z,95
2023-04-02T02:23:39.824Z,95
2023-04-02T02:24:12.233Z,95
2023-04-02T02:24:34.925Z,95
2023-04-02T02:24:57.168Z,95
2023-04-02T02:25:31.967Z,95
2023-04-02T02:26:06.070Z,95
2023-04-02T02:26:36.527Z,95
2023-04-02T02:27:07.883Z,95
2023-04-02T02:27:41.077Z,95
2023-04-02T02:28:12.300Z,95
2023-04-02T02:28:35.169Z,95
2023-04-02T02:28:57.652Z,95
2023-04-02T02:29:31.791Z,95
2023-04-02T02:30:07.240Z,95
2023-04-02T02:30:35.915Z,95
2023-04-02T02:31:08.016Z,95
2023-04-02T02:31:39.799Z,95
2023-04-02T02:32:12.942Z,95
2023-04-02T02:32:35.832Z,95
2023-04-02T02:32:57.974Z,95
2023-04-02T02:33:31.921Z,94
2023-04-02T02:34:03.893Z,94
2023-04-02T02:34:35.869Z,94
2023-04-02T02:35:07.842Z,94
2023-04-02T02:35:39.756Z,94
2023-04-02T02:36:11.854Z,94
2023-04-02T02:36:34.719Z,94
2023-04-02T02:36:57.119Z,94
2023-04-02T02:37:31.819Z,94
2023-04-02T02:38:03.868Z,94
2023-04-02T02:38:41.608Z,94
2023-04-02T02:39:03.631Z,94
2023-04-02T02:39:40.121Z,94
2023-04-02T02:40:12.237Z,94
2023-04-02T02:40:34.571Z,94
2023-04-02T02:40:56.915Z,94
2023-04-02T02:41:32.063Z,94
2023-04-02T02:42:04.001Z,94
2023-04-02T02:42:35.854Z,94
2023-04-02T02:43:08.808Z,94
2023-04-02T02:43:39.687Z,94
2023-04-02T02:44:14.512Z,94
2023-04-02T02:44:34.932Z,94
2023-04-02T02:44:57.231Z,94
2023-04-02T02:45:31.937Z,94
2023-04-02T02:46:04.446Z,94
2023-04-02T02:46:35.939Z,94
2023-04-02T02:47:09.503Z,94
2023-04-02T02:47:39.872Z,94
2023-04-02T02:48:13.367Z,94
2023-04-02T02:48:34.759Z,94
2023-04-02T02:48:57.085Z,94
2023-04-02T02:49:31.811Z,94
2023-04-02T02:50:03.816Z,94
2023-04-02T02:50:35.773Z,94
2023-04-02T02:51:10.402Z,94
2023-04-02T02:51:39.725Z,94
2023-04-02T02:52:11.870Z,94
2023-04-02T02:52:36.317Z,94
2023-04-02T02:52:57.510Z,94
2023-04-02T02:53:31.979Z,94
2023-04-02T02:54:03.816Z,94
2023-04-02T02:54:35.984Z,94
2023-04-02T02:55:08.045Z,93
2023-04-02T02:55:39.856Z,93
2023-04-02T02:56:12.037Z,93
2023-04-02T02:56:34.917Z,93
2023-04-02T02:57:16.767Z,93
2023-04-02T02:57:38.998Z,93
2023-04-02T02:58:02.656Z,93
2023-04-02T02:58:36.346Z,93
2023-04-02T02:59:08.335Z,93
2023-04-02T02:59:40.187Z,93
2023-04-02T03:00:28.766Z,93
2023-04-02T03:01:00.263Z,93
2023-04-02T03:01:32.314Z,93
2023-04-02T03:02:05.479Z,93
2023-04-02T03:02:36.753Z,93
2023-04-02T03:03:08.515Z,93
2023-04-02T03:03:41.653Z,93
2023-04-02T03:04:12.570Z,93
2023-04-02T03:04:40.251Z,93
2023-04-02T03:04:58.656Z,93
2023-04-02T03:05:32.281Z,93
2023-04-02T03:06:04.074Z,93
2023-04-02T03:06:39.898Z,93
2023-04-02T03:07:02.476Z,93
2023-04-02T03:07:40.308Z,93
2023-04-02T03:08:14.187Z,93
2023-04-02T03:08:34.952Z,93
2023-04-02T03:08:57.320Z,93
2023-04-02T03:09:26.882Z,93
2023-04-02T03:10:04.262Z,93
2023-04-02T03:10:35.809Z,93
2023-04-02T03:11:07.720Z,93
2023-04-02T03:11:40.053Z,93
2023-04-02T03:12:13.914Z,93
2023-04-02T03:12:34.700Z,93
2023-04-02T03:12:56.870Z,93
2023-04-02T03:13:31.864Z,93
2023-04-02T03:14:03.872Z,93
2023-04-02T03:14:35.832Z,93
2023-04-02T03:15:09.395Z,94
2023-04-02T03:15:39.832Z,94
2023-04-02T03:16:14.370Z,94
2023-04-02T03:16:35.318Z,94
2023-04-02T03:16:57.726Z,94
2023-04-02T03:17:31.861Z,94
2023-04-02T03:18:04.042Z,94
2023-04-02T03:18:35.835Z,94
2023-04-02T03:19:07.831Z,94
2023-04-02T03:19:39.813Z,94
2023-04-02T03:20:12.351Z,94
2023-04-02T03:20:35.107Z,94
2023-04-02T03:20:57.477Z,94
2023-04-02T03:21:31.796Z,94
2023-04-02T03:22:03.822Z,93
2023-04-02T03:22:35.885Z,93
2023-04-02T03:23:08.087Z,94
2023-04-02T03:23:39.747Z,93
2023-04-02T03:24:11.754Z,93
2023-04-02T03:24:35.078Z,93
2023-04-02T03:24:57.606Z,93
2023-04-02T03:25:31.939Z,93
2023-04-02T03:26:03.778Z,93
2023-04-02T03:26:35.816Z,93
2023-04-02T03:27:07.783Z,93
2023-04-02T03:27:40.107Z,93
2023-04-02T03:28:11.778Z,93
2023-04-02T03:28:34.388Z,93
2023-04-02T03:28:56.828Z,93
2023-04-02T03:29:32.076Z,93
2023-04-02T03:30:04.078Z,93
2023-04-02T03:30:35.860Z,94
2023-04-02T03:31:08.067Z,94
2023-04-02T03:31:39.751Z,93
2023-04-02T03:32:11.786Z,93
2023-04-02T03:32:35.308Z,93
2023-04-02T03:32:57.176Z,94
2023-04-02T03:33:31.717Z,93
2023-04-02T03:34:03.828Z,94
2023-04-02T03:34:35.802Z,93
2023-04-02T03:35:07.914Z,93
2023-04-02T03:35:39.845Z,93
2023-04-02T03:36:11.910Z,93
2023-04-02T03:36:34.635Z,93
2023-04-02T03:36:57.051Z,93
2023-04-02T03:37:31.769Z,93
2023-04-02T03:38:04.146Z,93
2023-04-02T03:38:35.753Z,93
2023-04-02T03:39:07.634Z,93
2023-04-02T03:39:39.868Z,93
2023-04-02T03:40:11.941Z,93
2023-04-02T03:40:34.817Z,93
2023-04-02T03:40:57.201Z,93
2023-04-02T03:41:31.948Z,93
2023-04-02T03:42:04.106Z,93
2023-04-02T03:42:35.909Z,93
2023-04-02T03:43:07.686Z,93
2023-04-02T03:43:39.892Z,93
2023-04-02T03:44:11.706Z,93
2023-04-02T03:44:34.635Z,93
2023-04-02T03:44:57.069Z,93
2023-04-02T03:45:31.853Z,93
2023-04-02T03:46:04.208Z,93
2023-04-02T03:46:36.051Z,93
2023-04-02T03:47:07.802Z,93
2023-04-02T03:47:39.892Z,93
2023-04-02T03:48:13.309Z,93
2023-04-02T03:48:35.050Z,93
2023-04-02T03:48:57.176Z,93
2023-04-02T03:49:31.933Z,93
2023-04-02T03:50:03.982Z,93
2023-04-02T03:50:35.749Z,93
2023-04-02T03:51:07.734Z,93
2023-04-02T03:51:40.016Z,93
2023-04-02T03:52:11.894Z,93
2023-04-02T03:52:34.392Z,93
2023-04-02T03:52:56.705Z,93
2023-04-02T03:53:31.818Z,93
2023-04-02T03:54:04.077Z,93
2023-04-02T03:54:36.708Z,93
2023-04-02T03:55:08.256Z,93
2023-04-02T03:55:40.342Z,93
2023-04-02T03:56:11.795Z,93
2023-04-02T03:56:34.945Z,93
2023-04-02T03:56:57.807Z,93
2023-04-02T03:57:32.013Z,93
2023-04-02T03:58:03.903Z,93
2023-04-02T03:58:36.023Z,93
2023-04-02T03:59:08.153Z,93
2023-04-02T03:59:40.128Z,93
2023-04-02T04:00:14.673Z,93
2023-04-02T04:00:35.290Z,93
2023-04-02T04:01:05.030Z,93
2023-04-02T04:01:32.963Z,93
2023-04-02T04:02:05.593Z,93
2023-04-02T04:02:37.348Z,93
2023-04-02T04:03:10.664Z,93
2023-04-02T04:03:41.728Z,93
2023-04-02T04:04:12.337Z,93
2023-04-02T04:04:35.223Z,93
2023-04-02T04:04:59.528Z,93
2023-04-02T04:05:32.348Z,93
2023-04-02T04:06:04.099Z,92
2023-04-02T04:06:36.057Z,92
2023-04-02T04:07:08.541Z,92
2023-04-02T04:07:41.484Z,93
2023-04-02T04:08:13.148Z,92
2023-04-02T04:08:36.052Z,92
2023-04-02T04:08:58.821Z,92
2023-04-02T04:09:29.095Z,92
2023-04-02T04:10:03.914Z,92
2023-04-02T04:10:36.267Z,92
2023-04-02T04:11:07.927Z,92
2023-04-02T04:11:40.032Z,92
2023-04-02T04:12:12.100Z,92
2023-04-02T04:12:34.771Z,92
2023-04-02T04:12:57.520Z,92
2023-04-02T04:13:31.833Z,92
2023-04-02T04:14:04.331Z,92
2023-04-02T04:14:35.872Z,92
2023-04-02T04:15:09.959Z,92
2023-04-02T04:15:39.828Z,92
2023-04-02T04:16:12.193Z,92
2023-04-02T04:16:34.995Z,92
2023-04-02T04:16:57.289Z,92
2023-04-02T04:17:32.414Z,92
2023-04-02T04:18:05.215Z,92
2023-04-02T04:18:36.845Z,92
2023-04-02T04:19:07.885Z,92
2023-04-02T04:19:40.050Z,92
2023-04-02T04:20:11.787Z,92
2023-04-02T04:20:34.462Z,92
2023-04-02T04:20:57.118Z,92
2023-04-02T04:21:31.861Z,92
2023-04-02T04:22:04.045Z,92
2023-04-02T04:22:36.306Z,92
2023-04-02T04:23:08.720Z,92
2023-04-02T04:23:40.239Z,92
2023-04-02T04:24:12.690Z,92
2023-04-02T04:24:35.398Z,92
2023-04-02T04:24:57.703Z,92
2023-04-02T04:25:31.795Z,92
2023-04-02T04:26:04.168Z,92
2023-04-02T04:26:37.186Z,92
2023-04-02T04:27:08.465Z,92
2023-04-02T04:27:40.398Z,92
2023-04-02T04:28:12.484Z,92
2023-04-02T04:28:35.192Z,92
2023-04-02T04:28:57.571Z,92
2023-04-02T04:29:31.954Z,92
2023-04-02T04:30:04.098Z,92
2023-04-02T04:30:35.724Z,92
2023-04-02T04:31:08.027Z,92
2023-04-02T04:31:39.868Z,92
2023-04-02T04:32:11.903Z,92
2023-04-02T04:32:34.956Z,92
2023-04-02T04:32:57.347Z,92
2023-04-02T04:33:32.433Z,92
2023-04-02T04:34:03.671Z,92
2023-04-02T04:34:35.917Z,92
2023-04-02T04:35:07.887Z,92
2023-04-02T04:35:40.334Z,92
2023-04-02T04:36:11.793Z,92
2023-04-02T04:36:34.461Z,92
2023-04-02T04:36:56.839Z,92
2023-04-02T04:37:31.780Z,92
2023-04-02T04:38:04.002Z,92
2023-04-02T04:38:35.668Z,92
2023-04-02T04:39:07.900Z,92
2023-04-02T04:39:39.681Z,92
2023-04-02T04:40:11.931Z,92
2023-04-02T04:40:34.556Z,92
2023-04-02T04:40:57.898Z,92
2023-04-02T04:41:33.018Z,92
2023-04-02T04:42:04.561Z,92
2023-04-02T04:42:35.891Z,92
2023-04-02T04:43:07.734Z,92
2023-04-02T04:43:39.959Z,92
2023-04-02T04:44:12.090Z,92
2023-04-02T04:44:34.569Z,92
2023-04-02T04:44:57.132Z,92
2023-04-02T04:45:32.125Z,92
2023-04-02T04:46:04.919Z,92
2023-04-02T04:46:35.844Z,92
2023-04-02T04:47:07.917Z,91
2023-04-02T04:47:39.836Z,91
2023-04-02T04:48:13.479Z,91
2023-04-02T04:48:36.332Z,91
2023-04-02T04:48:57.777Z,91
2023-04-02T04:49:32.454Z,91
2023-04-02T04:50:03.949Z,91
2023-04-02T04:50:36.178Z,91
2023-04-02T04:51:07.824Z,91
2023-04-02T04:51:40.630Z,91
2023-04-02T04:52:12.215Z,91
2023-04-02T04:52:34.995Z,91
2023-04-02T04:52:57.422Z,91
2023-04-02T04:53:31.815Z,91
2023-04-02T04:54:03.897Z,92
2023-04-02T04:54:35.903Z,91
2023-04-02T04:55:07.991Z,92
2023-04-02T04:55:39.913Z,92
2023-04-02T04:56:19.320Z,92
2023-04-02T04:56:34.954Z,92
2023-04-02T04:56:57.595Z,92
2023-04-02T04:57:32.900Z,92
2023-04-02T04:58:03.814Z,92
2023-04-02T04:58:36.312Z,92
2023-04-02T04:59:08.259Z,92
2023-04-02T04:59:40.080Z,92
2023-04-02T05:00:12.047Z,92
2023-04-02T05:00:34.578Z,92
2023-04-02T05:00:57.484Z,92
2023-04-02T05:01:33.030Z,92
2023-04-02T05:02:04.974Z,92
2023-04-02T05:02:35.910Z,92
2023-04-02T05:03:08.495Z,92
2023-04-02T05:03:41.658Z,91
2023-04-02T05:04:12.706Z,91
2023-04-02T05:04:36.976Z,91
2023-04-02T05:04:58.126Z,91
2023-04-02T05:05:34.445Z,91
2023-04-02T05:06:04.471Z,91
2023-04-02T05:06:36.229Z,91
2023-04-02T05:07:09.480Z,91
2023-04-02T05:07:40.981Z,91
2023-04-02T05:08:12.139Z,91
2023-04-02T05:08:34.957Z,91
2023-04-02T05:08:58.191Z,91
2023-04-02T05:09:31.798Z,91
2023-04-02T05:10:05.051Z,91
2023-04-02T05:10:36.271Z,91
2023-04-02T05:11:08.286Z,91
2023-04-02T05:11:39.973Z,91
2023-04-02T05:12:12.102Z,91
2023-04-02T05:12:34.924Z,91
2023-04-02T05:12:57.062Z,91
2023-04-02T05:13:32.398Z,91
2023-04-02T05:14:04.264Z,91
2023-04-02T05:14:36.662Z,91
2023-04-02T05:15:11.492Z,91
2023-04-02T05:15:40.411Z,91
2023-04-02T05:16:12.612Z,91
2023-04-02T05:16:34.950Z,91
2023-04-02T05:16:57.815Z,91
2023-04-02T05:17:33.635Z,91
2023-04-02T05:18:05.418Z,91
2023-04-02T05:18:36.167Z,91
2023-04-02T05:19:08.020Z,91
2023-04-02T05:19:39.956Z,91
2023-04-02T05:20:12.048Z,91
2023-04-02T05:20:34.688Z,91
2023-04-02T05:20:57.052Z,91
2023-04-02T05:21:34.086Z,91
2023-04-02T05:22:04.514Z,91
2023-04-02T05:22:39.416Z,91
2023-04-02T05:23:08.493Z,91
2023-04-02T05:23:41.617Z,91
2023-04-02T05:24:13.921Z,91
2023-04-02T05:24:36.876Z,91
2023-04-02T05:24:59.268Z,91
2023-04-02T05:25:35.034Z,91
2023-04-02T05:26:05.072Z,91
2023-04-02T05:26:36.576Z,91
2023-04-02T05:27:08.203Z,91
2023-04-02T05:27:40.923Z,91
2023-04-02T05:28:12.627Z,91
2023-04-02T05:28:35.994Z,91
2023-04-02T05:28:57.626Z,90
2023-04-02T05:29:32.068Z,90
2023-04-02T05:30:04.425Z,90
2023-04-02T05:30:36.205Z,90
2023-04-02T05:31:08.536Z,90
2023-04-02T05:31:40.156Z,90
2023-04-02T05:32:12.597Z,90
2023-04-02T05:32:36.192Z,90
2023-04-02T05:32:58.236Z,90
2023-04-02T05:33:32.000Z,90
2023-04-02T05:34:04.839Z,90
2023-04-02T05:34:36.682Z,90
2023-04-02T05:35:09.523Z,90
2023-04-02T05:35:40.195Z,90
2023-04-02T05:36:12.482Z,90
2023-04-02T05:36:36.707Z,90
2023-04-02T05:36:57.553Z,90
2023-04-02T05:37:32.358Z,90
2023-04-02T05:38:04.203Z,90
2023-04-02T05:38:38.446Z,90
2023-04-02T05:39:08.006Z,90
2023-04-02T05:39:40.372Z,90
2023-04-02T05:40:11.851Z,90
2023-04-02T05:40:37.565Z,90
2023-04-02T05:40:57.107Z,90
2023-04-02T05:41:31.902Z,90
2023-04-02T05:42:05.596Z,90
2023-04-02T05:42:37.980Z,90
2023-04-02T05:43:07.876Z,90
2023-04-02T05:43:39.922Z,90
2023-04-02T05:44:14.016Z,90
2023-04-02T05:44:36.333Z,90
2023-04-02T05:44:57.059Z,90
2023-04-02T05:45:35.623Z,90
2023-04-02T05:46:20.001Z,90
2023-04-02T05:46:42.634Z,90
2023-04-02T05:47:10.814Z,90
2023-04-02T05:47:48.373Z,90
2023-04-02T05:48:10.703Z,90
2023-04-02T05:48:34.081Z,90
2023-04-02T05:48:58.467Z,90
2023-04-02T05:49:33.145Z,90
2023-04-02T05:50:03.930Z,90
2023-04-02T05:50:35.998Z,90
2023-04-02T05:51:07.914Z,90
2023-04-02T05:51:40.139Z,90
2023-04-02T05:52:11.788Z,90
2023-04-02T05:52:34.650Z,90
2023-04-02T05:52:56.890Z,90
2023-04-02T05:53:31.901Z,90
2023-04-02T05:54:03.898Z,90
2023-04-02T05:54:36.829Z,90
2023-04-02T05:55:07.764Z,90
2023-04-02T05:55:40.877Z,90
2023-04-02T05:56:11.891Z,90
2023-04-02T05:56:36.291Z,90
2023-04-02T05:56:57.187Z,90
2023-04-02T05:57:42.778Z,90
2023-04-02T05:58:25.492Z,90
2023-04-02T05:58:45.535Z,90
2023-04-02T05:59:05.843Z,90
2023-04-02T05:59:41.621Z,90
2023-04-02T06:00:12.038Z,90
2023-04-02T06:00:36.343Z,90
2023-04-02T06:01:00.491Z,90
2023-04-02T06:01:32.112Z,90
2023-04-02T06:02:06.548Z,90
2023-04-02T06:02:33.375Z,90
2023-04-02T06:03:10.232Z,90
2023-04-02T06:03:44.467Z,90
2023-04-02T06:04:07.117Z,90
2023-04-02T06:04:39.107Z,90
2023-04-02T06:05:15.947Z,90
2023-04-02T06:05:39.440Z,90
2023-04-02T06:06:01.503Z,90
2023-04-02T06:06:36.059Z,90
2023-04-02T06:07:07.758Z,90
2023-04-02T06:07:42.695Z,90
2023-04-02T06:08:11.957Z,90
2023-04-02T06:08:35.259Z,90
2023-04-02T06:08:57.893Z,90
2023-04-02T06:09:28.791Z,90
2023-04-02T06:10:03.875Z,90
2023-04-02T06:10:36.108Z,90
2023-04-02T06:11:08.209Z,90
2023-04-02T06:11:40.133Z,90
2023-04-02T06:12:06.689Z,90
2023-04-02T06:12:39.177Z,90
2023-04-02T06:13:19.499Z,90
2023-04-02T06:13:39.437Z,90
2023-04-02T06:14:01.890Z,90
2023-04-02T06:14:36.145Z,90
2023-04-02T06:15:11.423Z,90
2023-04-02T06:15:40.462Z,90
2023-04-02T06:16:11.836Z,90
2023-04-02T06:16:34.622Z,90
2023-04-02T06:16:57.649Z,90
2023-04-02T06:17:33.736Z,90
2023-04-02T06:18:05.781Z,90
2023-04-02T06:18:36.672Z,90
2023-04-02T06:19:08.193Z,90
2023-04-02T06:19:40.005Z,90
2023-04-02T06:20:12.172Z,90
2023-04-02T06:20:34.863Z,90
2023-04-02T06:20:57.527Z,90
2023-04-02T06:21:31.926Z,90
2023-04-02T06:22:03.834Z,90
2023-04-02T06:22:36.438Z,90
2023-04-02T06:23:07.871Z,90
2023-04-02T06:23:40.136Z,90
2023-04-02T06:24:15.294Z,90
2023-04-02T06:24:38.087Z,90
2023-04-02T06:25:19.698Z,90
2023-04-02T06:25:39.932Z,90
2023-04-02T06:26:01.686Z,90
2023-04-02T06:26:35.883Z,90
2023-04-02T06:27:07.767Z,90
2023-04-02T06:27:40.026Z,90
2023-04-02T06:28:12.165Z,90
2023-04-02T06:28:34.566Z,90
2023-04-02T06:28:57.050Z,90
2023-04-02T06:29:32.003Z,90
2023-04-02T06:30:04.094Z,90
2023-04-02T06:30:35.795Z,90
2023-04-02T06:31:08.054Z,90
2023-04-02T06:31:39.721Z,89
2023-04-02T06:32:11.742Z,89
2023-04-02T06:32:38.869Z,89
2023-04-02T06:33:16.337Z,89
2023-04-02T06:33:38.638Z,89
2023-04-02T06:34:05.467Z,89
2023-04-02T06:34:36.782Z,89
2023-04-02T06:35:08.930Z,89
2023-04-02T06:35:40.005Z,89
2023-04-02T06:36:12.007Z,89
2023-04-02T06:36:34.710Z,89
2023-04-02T06:36:57.924Z,89
2023-04-02T06:37:32.115Z,89
2023-04-02T06:38:04.003Z,89
2023-04-02T06:38:36.015Z,89
2023-04-02T06:39:08.091Z,89
2023-04-02T06:39:44.045Z,89
2023-04-02T06:40:06.648Z,89
2023-04-02T06:40:38.962Z,89
2023-04-02T06:41:16.101Z,89
2023-04-02T06:41:39.787Z,89
2023-04-02T06:42:02.220Z,89
2023-04-02T06:42:35.737Z,89
2023-04-02T06:43:07.730Z,88
2023-04-02T06:43:39.870Z,89
2023-04-02T06:44:12.829Z,89
2023-04-02T06:44:34.323Z,89
2023-04-02T06:44:56.826Z,89
2023-04-02T06:45:31.992Z,89
2023-04-02T06:46:03.787Z,89
2023-04-02T06:46:35.970Z,88
2023-04-02T06:47:07.758Z,88
2023-04-02T06:47:39.784Z,88
2023-04-02T06:48:14.419Z,88
2023-04-02T06:48:34.894Z,88
2023-04-02T06:48:58.318Z,88
2023-04-02T06:49:32.029Z,88
2023-04-02T06:50:03.997Z,88
2023-04-02T06:50:36.862Z,88
2023-04-02T06:51:07.735Z,88
2023-04-02T06:51:39.799Z,88
2023-04-02T06:52:11.950Z,88
2023-04-02T06:52:35.042Z,88
2023-04-02T06:52:56.924Z,88
2023-04-02T06:53:31.853Z,88
2023-04-02T06:54:03.741Z,88
2023-04-02T06:54:35.951Z,88
2023-04-02T06:55:07.890Z,88
2023-04-02T06:55:40.046Z,88
2023-04-02T06:56:11.794Z,88
2023-04-02T06:56:34.844Z,88
2023-04-02T06:56:57.116Z,88
2023-04-02T06:57:31.819Z,88
2023-04-02T06:58:03.898Z,88
2023-04-02T06:58:35.758Z,88
2023-04-02T06:59:07.710Z,88
2023-04-02T06:59:40.085Z,88
2023-04-02T07:00:12.012Z,88
2023-04-02T07:00:35.129Z,88
2023-04-02T07:00:58.727Z,88
2023-04-02T07:01:32.002Z,88
2023-04-02T07:02:05.332Z,87
2023-04-02T07:02:31.132Z,87
2023-04-02T07:03:09.714Z,87
2023-04-02T07:03:42.961Z,87
2023-04-02T07:04:12.347Z,87
2023-04-02T07:04:35.210Z,87
2023-04-02T07:04:57.748Z,87
2023-04-02T07:05:31.843Z,87
2023-04-02T07:06:07.936Z,87
2023-04-02T07:06:37.986Z,87
2023-04-02T07:07:08.319Z,87
2023-04-02T07:07:39.927Z,87
2023-04-02T07:08:11.781Z,87
2023-04-02T07:08:38.016Z,87
2023-04-02T07:08:57.771Z,87
2023-04-02T07:09:28.920Z,87
2023-04-02T07:10:03.961Z,87
2023-04-02T07:10:36.011Z,87